Timeline UpdatesTrip UpdatesNews PostsPvt Posts♥♥Travel TipsAdmin PostsConv PostsFollowed PostsChat RequestsBlog PostsPNR Posts

Disclaimer
Search
 
 
Mon Oct 20, 2014 15:15:21 ISTHomeTrainsΣChainsAtlasPNRForumGalleryNewsFAQTripsMembersLoginFeedback
No Recent News for this Train
Other Trains in the News **new
Latest...
For the very reason, the Division says that the Kilakkarai-Bangalore City passenger (Train 56513) will be delayed for 130 minutes at Vridhachalam and leave at 12.15 p.m. on January 5.
Sun Jan 05, 2014 (11:18AM)
⇐ Return Journey: Train# 56514

56513/Karaikal Bangalore City Fast Passenger (UnReserved)

Time-Table HAS CHANGED.
Sep 03 2014 (2:02PM)
Change Departure Station:
Change Arrival Station:
Post a Train Travel TipPost a Train Travel Tip **new
Post a Comment/Question/Picture/VideoPost a Comment/Question/Picture/Video
Inaugural Run
Mon Jul 02, 2012
Pantry/Catering
✕ NO Pantry Car
✕ NO Catering
Loco/Rake Reversals
VRI/Vriddhachalam Junction (4); TVR/Thiruvarur Junction (5); CUPJ/Cuddalore Port Junction (4);
RSA - Rake Sharing
NIL
Rake/Coach Composition
14 UR coaches and 2 SLR's
Loco
KJM WDM-2 / WDG-3A / WDM3A , GOC-WDP-3A
News    PNR    Forum    Time-Table    Availability    Fare Chart    Map    Arr/Dep History    Trips    Gallery    ΣChains    X/O    Timeline    
Travel Time: 0h 24m    0 halts    Distance: 4 km    Avg Speed: 10 km/hr
Type: Passenger
Zone: SWR/South Western
Departs @ 18:36 (Avg 16m late)
Platform# 1
SMTWTFS
Bangalore Cantt./BNC 
Arrives @ 19:00 (Avg 8m late)
Platform# 2
SMTWTFS
Bangalore City Junction/SBC 

0 halts. 0 intermediate Stations between Bangalore Cantt. and Bangalore City Junction

Show ALL intermediate Stations  Show Old Time-Table

#TrkCodeStation NameX/OArrivesAvgDepartsAvgHaltPFDay#KmSpeedElevZoneAddress
1|--|KIKKaraikal (3)  -03:40+011-565.3374mSRKaraikal, Puducherry
2|--|NCRNagore (3)  03:58+404:00+42m11-554.2435mSRPIN 611002, Tamil Nadu
3|--|NGTNagappattinam Junction (3)  04:10+904:15+85m11-547.1479mSRNagapattinam 611001, Tamil Nadu
4|--|TVRThiruvarur Junction (5)04:45+704:55+1310m31-523.74913mSRPIN 610001, Tamil Nadu
5|--|NNMNannilam (2)X  05:13+1305:15+172m11-509.15811mSRSannanallur PIN 610105, Tamil Nadu
6|--|PEMPeralam Junction (3)  05:24+1905:25+211m11-500.41712mSRPeralam 609405, Tamil Nadu
7|--|MVMayiladuturai Junction (5)  06:20-106:30+210m11-485.04217mSRPIN 609003, Tamil Nadu
8|--|NIDNidur (1) new halt!!  06:36-06:37-1m11-480.82413mSRPIN 609203, Tamil Nadu
9|--|ANPAnandatandavapuram (2)  06:43+206:44+41m11-478.46511mSRRailady Street, Tamil Nadu
10|--|VDLVaithisvaran Koil (2)  06:51+306:52+41m11-470.94312mSRPIN 609117, Tamil Nadu
11|--|SYSirkazhi (2)  07:00+507:01+71m11-465.1566mSRPIN 609110, Tamil Nadu
12|--|CLNKollidam (2)O  07:12+507:13+61m11-454.8329mSRKollidam, Tamil Nadu
13|--|VMPVallampadugai (1)  07:17-07:18-1m11-452.62810mSRVallampadugai, Tamil Nadu
14|--|CDMChidambaram (3)X  07:28+307:30+42m11-447.9586mSRChidambaram, Tamil Nadu
15|--|CUPJCuddalore Port Junction (4)08:10+508:20+1410m11-409.4792mSRCuddalore Township, Tamil Nadu
16|--|KJPDKurinjipadi  08:39+2408:40+241m--1-384.33420mSRKurinjippadi, Tamil Nadu
17|--|VLUVadalur  08:49+2308:50+231m--1-379.25544mSRVadalur, Tamil Nadu
18|--|NVLNeyveli  08:59+2309:00+231m--1-371.04536mSRSH 10, Tamil Nadu
19|--|UMGUttangal Mangalam  09:09+2209:10+221m--1-364.31942mSRState Highway 10, Tamil Nadu
20|--|VRIVriddhachalam Junction (4)09:50+210:00+910m11-351.95845mSRTamil Nadu, Tamil Nadu
21|--|MKSPMukhasa Parur  10:23+410:24+71m--1-329.66470mSRMukhasa Parur ph.no. 04143-204465, Tamil Nadu
22|--|KKTIKuttakudi  10:34-10:35-1m--1-318.91896mSRKuttakudi, Tamil Nadu
23|--|PRVPukkirivari  10:54+810:55+81m--1-313.36099mSRPukkirivari ph.no. 04151-238388, Tamil Nadu
24|--|SRVTSiruvattur  11:01-11:02-1m--1-307.424107mSRSiruvattur, Tamil Nadu
25|--|CHSMChinna Salem (3)X  11:19+511:20+201m--1-300.455138mSRChinnasalem ph.no.04151-236251, Tamil Nadu
26|--|MLYRMelnariyapanur  11:27-11:28-1m--1-294.062153mSRSalem - Ulundurpet Rd, Tamil Nadu
27|--|TVSTalaivasal  11:35-11:36-1m--1-286.763169mSRTalaivasal, Tamil Nadu
28|--|ATUAttur (3)  11:53+1911:55+192m--1-269.068230mSRAttur ph.no. 04282-240783, Tamil Nadu
29|--|PDKMPedanayakanpalayam  12:05-12:06-1m--1-257.730262mSRPethanaickenpalayam, Tamil Nadu
30|--|ETPEttapur Road (2)  12:14+1812:15+181m--1-253.763280mSREttapur Road ph.no. 04282-221888, Tamil Nadu
31|--|VGEValappadi G Halt (1)  12:22-12:23-1m11-246.382305mSRVazhapadi, Tamil Nadu
32|--|MPLIMinnampalli  12:34+2012:35+211m--1-231.339341mSRMinnampalli ph.no. 0427-2482102, Tamil Nadu
33|--|APNAyodhyapattanam (1)  12:41-12:42-1m11-227.443321mSRSalem, Tamil Nadu
34|--|SXTSalem Town (2)  12:53+1912:55+202m--1-219.533285mSRSalem, Tamil Nadu
35|--|SAMTSalem MarketX  12:59+2113:00+211m--1-217.412274mSRSalem, Tamil Nadu
36|--|SASalem Junction (6)  13:20+913:25+95m41-213.337283mSRSalem, Tamil Nadu
37/--/OMLOmalur Junction (2)  13:43+1213:45+132m--1-202.337278mSROmalur ph.no. 04290-220245, Tamil Nadu
38|--|KVLRKaruvalli  14:11 14:04+2414:12 14:05+251m--1-190.654333mSWRSalem district, Tamil Nadu
39|--|TPPToppur  14:24 14:19+2614:25 14:20+261m--1-177.950358mSWRDharmapuri, Tamil Nadu
40|--|MPCMuttampatti (1)  14:38 14:34-14:39 14:35-1m11-166.256432mSWRDharmapuri, Tamil Nadu
41|--|SZVSivadi  14:48 14:44+3314:49 14:45+331m--1-157.949502mSWRDharmapuri, Tamil Nadu
42|--|DPJDharmapuri (3)  15:03 14:58+3315:08 15:00+325 2m--1-147.263467mSWRDharmapuri, Tamil Nadu
43|--|PCVPalakkodu (1)  15:28 15:21+3315:29 15:22+341m11-125.364503mSWRDharmapuri, Tamil Nadu
44|--|MZUMarandahalli (2)  15:42 15:34+3715:43 15:35+371m21-112.453579mSWRDharmapuri, Tamil Nadu
45|--|RYCRayakkottai (2)  16:07 15:56+3716:08 15:57+371m--1-94.0136724mSWRHosur- Dharmapuri Highway, Tamil Nadu
46|--|PRNTPeriyanaga Thunai (1)  16:14 16:04+4716:15 16:05+481m11-78.134787mSWRAttibele-Rayakottai Raod, Tamil Nadu
47|--|KMLMKelamangalam  16:30 16:21+4316:31 16:22+431m--1-69.040804mSWRKrishnagiri, Tamil Nadu
48|--|HSRAHosur (3)  16:48 16:43+3916:50 16:45+412m11-54.945895mSWRHosur, Tamil Nadu
49|--|AEKAnekal Road (2)X  17:09 17:04+3817:10 17:05+391m--1-40.542911mSWRBengaluru-562106, Karnataka
50|--|HLEHeelalige (2)  17:21 17:19+3817:22 17:20+401m--1-30.773885mSWRBengaluru, Karnataka
51|--|CRLMKarmelaram (2)X  17:34 17:29+4017:35 17:30+401m--1-19.816901mSWRBangalore 560035, Karnataka
52|--|BYPLBaiyyappanahalli (2)X  18:19+2018:20+201m11-6.447913mSWRBengaluru-560038, Karnataka
53/==/BNCEBangalore East (2)X  18:25+1018:26+101m11-2.518915mSWRBangalore, Karnataka
54/==/BNCBangalore Cantt. (4)»  18:34+1518:36+162m110.011929mSWRBengaluru-560052, Karnataka
55/==/SBCBangalore City Junction (10)•  19:00+8-214.5-903mSWRBengaluru-560023, Karnataka
Scroll to Top
Scroll to Bottom